Time;durP1;ratioP1;P1;durP2;ratioP2;P2;SDS_P1;SDS_P2;PMS_P1;PMS_P2;Temp;Humidity;BMP_temperature;BMP_pressure;BME280_temperature;BME280_humidity;BME280_pressure;Samples;Min_cycle;Max_cycle;Signal;HPM_P1;HPM_P2
2021/07/05 00:02:29;;;;;;;6.70;6.30;;;15.90;99.90;;;;;;4992620;28;20443;-62
2021/07/05 00:04:55;;;;;;;6.70;6.30;;;15.90;99.90;;;;;;5004310;28;20505;-62
2021/07/05 00:07:22;;;;;;;7.20;6.63;;;16.00;99.90;;;;;;5012433;28;20481;-63
2021/07/05 00:09:49;;;;;;;7.10;6.60;;;16.00;99.90;;;;;;5012259;28;20474;-62
2021/07/05 00:12:17;;;;;;;7.20;6.70;;;15.90;99.90;;;;;;5012386;28;20979;-63
2021/07/05 00:14:44;;;;;;;7.30;6.80;;;15.90;99.90;;;;;;5012347;28;20457;-63
2021/07/05 00:17:11;;;;;;;6.40;5.90;;;15.80;99.90;;;;;;5012362;28;20455;-63
2021/07/05 00:19:37;;;;;;;13.77;9.03;;;15.70;99.90;;;;;;5012251;28;20474;-63
2021/07/05 00:22:04;;;;;;;6.80;6.20;;;15.70;99.90;;;;;;5009145;28;20956;-62
2021/07/05 00:24:31;;;;;;;7.33;6.83;;;15.80;99.90;;;;;;4992584;28;20494;-64
2021/07/05 00:26:57;;;;;;;6.67;6.17;;;15.70;99.90;;;;;;4992712;28;20793;-62
2021/07/05 00:29:25;;;;;;;8.73;6.60;;;15.70;99.90;;;;;;4992491;28;20471;-62
2021/07/05 00:31:52;;;;;;;6.60;6.20;;;15.60;99.90;;;;;;4992445;28;20443;-63
2021/07/05 00:34:19;;;;;;;8.47;7.60;;;15.60;99.90;;;;;;4992574;28;20446;-62
2021/07/05 00:36:46;;;;;;;7.57;6.87;;;15.70;99.90;;;;;;4992757;28;20451;-62
2021/07/05 00:39:12;;;;;;;7.50;6.90;;;15.70;99.90;;;;;;5011599;28;20483;-62
2021/07/05 00:41:39;;;;;;;7.23;6.73;;;15.60;99.90;;;;;;5011903;28;20823;-62
2021/07/05 00:44:06;;;;;;;9.30;8.40;;;15.60;99.90;;;;;;5011717;28;20832;-62
2021/07/05 00:46:34;;;;;;;7.03;6.57;;;15.60;99.90;;;;;;4999112;28;20446;-63
2021/07/05 00:49:01;;;;;;;7.77;7.30;;;15.60;99.90;;;;;;4994949;28;20494;-63
2021/07/05 00:51:28;;;;;;;8.83;7.90;;;15.60;99.90;;;;;;4996208;28;20450;-63
2021/07/05 00:53:55;;;;;;;9.67;7.67;;;15.60;99.90;;;;;;4996291;28;20450;-63
2021/07/05 00:56:22;;;;;;;7.70;7.00;;;15.60;99.90;;;;;;4996227;28;20447;-63
2021/07/05 00:58:49;;;;;;;7.53;7.03;;;15.50;99.90;;;;;;4995955;28;21011;-63
2021/07/05 01:01:17;;;;;;;9.20;7.17;;;15.50;99.90;;;;;;4996107;28;20913;-62
2021/07/05 01:03:45;;;;;;;9.53;6.50;;;15.40;99.90;;;;;;4996119;28;20791;-63
2021/07/05 01:06:11;;;;;;;8.13;7.50;;;15.40;99.90;;;;;;4996271;28;20526;-64
2021/07/05 01:08:38;;;;;;;8.50;7.70;;;15.40;99.90;;;;;;4996058;28;20483;-63
2021/07/05 01:11:05;;;;;;;9.07;8.37;;;15.40;99.90;;;;;;4996051;28;20450;-62
2021/07/05 01:13:32;;;;;;;9.70;8.50;;;15.40;99.90;;;;;;4995951;28;20447;-63
2021/07/05 01:15:59;;;;;;;9.17;8.30;;;15.40;99.90;;;;;;4995986;28;20451;-62
2021/07/05 01:18:26;;;;;;;9.00;8.20;;;15.40;99.90;;;;;;4995992;28;20463;-62
2021/07/05 01:20:54;;;;;;;8.77;7.73;;;15.40;99.90;;;;;;4995961;28;20956;-62
2021/07/05 01:23:22;;;;;;;8.50;7.80;;;15.50;99.90;;;;;;4995302;28;20452;-62
2021/07/05 01:25:49;;;;;;;7.83;7.23;;;15.50;99.90;;;;;;4995464;28;20517;-62
2021/07/05 01:28:16;;;;;;;7.83;7.23;;;15.50;99.90;;;;;;4995564;28;20487;-63
2021/07/05 01:30:42;;;;;;;8.10;7.50;;;15.60;99.90;;;;;;5002289;28;20458;-63
2021/07/05 01:33:11;;;;;;;8.10;7.40;;;15.60;99.90;;;;;;5014969;28;20442;-63
2021/07/05 01:35:38;;;;;;;7.87;7.07;;;15.70;99.90;;;;;;5015311;28;20452;-63
2021/07/05 01:38:10;;;;;;;8.10;7.50;;;15.70;99.90;;;;;;5015077;28;20512;-62
2021/07/05 01:40:38;;;;;;;8.30;7.60;;;15.80;99.90;;;;;;5015140;28;20446;-62
2021/07/05 01:43:05;;;;;;;8.90;7.50;;;15.90;99.90;;;;;;5014830;28;20442;-61
2021/07/05 01:45:33;;;;;;;7.23;6.57;;;15.90;99.90;;;;;;5014728;28;20456;-63
2021/07/05 01:48:01;;;;;;;8.63;7.13;;;16.10;99.90;;;;;;5015226;28;20482;-62
2021/07/05 01:50:28;;;;;;;9.40;8.60;;;16.20;99.90;;;;;;5014597;28;20442;-63
2021/07/05 01:52:55;;;;;;;7.60;7.10;;;16.30;99.90;;;;;;5014795;28;20445;-62
2021/07/05 01:55:28;;;;;;;6.83;6.47;;;16.30;99.90;;;;;;5015070;28;20450;-62
2021/07/05 01:57:56;;;;;;;8.20;7.07;;;16.30;99.90;;;;;;5014603;28;20537;-63
2021/07/05 02:00:23;;;;;;;9.70;8.73;;;16.40;99.90;;;;;;5013683;28;20453;-62
2021/07/05 02:02:52;;;;;;;8.10;7.43;;;16.40;99.90;;;;;;5014459;28;20438;-63
2021/07/05 02:05:19;;;;;;;7.27;6.57;;;16.40;99.90;;;;;;5014760;28;20520;-62
2021/07/05 02:07:47;;;;;;;8.23;7.67;;;16.40;99.90;;;;;;5014494;28;20478;-62
2021/07/05 02:10:17;;;;;;;8.30;7.57;;;16.40;99.90;;;;;;5014606;28;20452;-63
2021/07/05 02:12:45;;;;;;;8.57;7.90;;;16.40;99.90;;;;;;5014380;28;20464;-63
2021/07/05 02:15:14;;;;;;;8.20;7.50;;;16.40;99.90;;;;;;5014427;28;20441;-63
2021/07/05 02:17:42;;;;;;;7.83;7.23;;;16.40;99.90;;;;;;5007067;28;20451;-63
2021/07/05 02:20:13;;;;;;;7.27;6.87;;;16.50;99.90;;;;;;4994664;28;20540;-63
2021/07/05 02:22:39;;;;;;;6.30;5.90;;;16.60;99.90;;;;;;4994620;28;20454;-63
2021/07/05 02:25:08;;;;;;;6.83;6.23;;;16.60;99.90;;;;;;4994577;28;20451;-63
2021/07/05 02:27:35;;;;;;;7.07;6.37;;;16.70;99.90;;;;;;4994511;28;20443;-63
2021/07/05 02:30:05;;;;;;;8.00;7.30;;;16.70;99.90;;;;;;4994732;28;20818;-63
2021/07/05 02:32:33;;;;;;;6.30;5.90;;;16.80;99.90;;;;;;4994430;28;20450;-62
2021/07/05 02:35:00;;;;;;;6.63;5.97;;;16.80;99.90;;;;;;5006612;28;20447;-63
2021/07/05 02:37:27;;;;;;;6.70;6.10;;;16.80;99.90;;;;;;4997839;28;20832;-62
2021/07/05 02:39:53;;;;;;;6.70;6.20;;;16.80;99.90;;;;;;4994524;28;20466;-63
2021/07/05 02:42:20;;;;;;;7.40;6.90;;;16.80;99.90;;;;;;4993872;28;20447;-63
2021/07/05 02:44:47;;;;;;;7.47;7.07;;;16.80;99.90;;;;;;4994381;28;20453;-62
2021/07/05 02:47:13;;;;;;;7.13;6.50;;;16.90;99.90;;;;;;4994345;28;20447;-63
2021/07/05 02:49:41;;;;;;;8.00;7.30;;;16.90;99.90;;;;;;4994379;28;20499;-63
2021/07/05 02:52:08;;;;;;;7.57;6.87;;;17.00;99.90;;;;;;5009163;28;20450;-63
2021/07/05 02:54:35;;;;;;;7.17;6.43;;;17.00;99.90;;;;;;5007612;28;20443;-63
2021/07/05 02:57:01;;;;;;;8.10;7.50;;;17.00;99.90;;;;;;4994327;28;20818;-63
2021/07/05 02:59:28;;;;;;;7.00;6.60;;;17.00;99.90;;;;;;4993862;28;20471;-63
2021/07/05 03:01:55;;;;;;;7.17;6.67;;;17.00;99.90;;;;;;4993962;28;20474;-63
2021/07/05 03:04:22;;;;;;;6.17;5.70;;;17.00;99.90;;;;;;4993992;28;20443;-62
2021/07/05 03:06:50;;;;;;;8.30;7.47;;;17.00;99.90;;;;;;4993837;28;20450;-62
2021/07/05 03:09:16;;;;;;;7.07;6.60;;;17.00;99.90;;;;;;4994671;28;20844;-62
2021/07/05 03:11:43;;;;;;;8.30;7.80;;;17.00;99.90;;;;;;4992660;28;20823;-62
2021/07/05 03:14:10;;;;;;;8.40;7.87;;;17.00;99.90;;;;;;4993911;28;20451;-62
2021/07/05 03:16:36;;;;;;;7.93;7.40;;;17.00;99.90;;;;;;4993812;28;20442;-62
2021/07/05 03:19:03;;;;;;;8.27;7.87;;;17.10;99.90;;;;;;4993714;28;20462;-62
2021/07/05 03:21:30;;;;;;;8.17;7.40;;;17.10;99.90;;;;;;4993600;28;20454;-62
2021/07/05 03:23:58;;;;;;;8.03;7.37;;;17.10;99.90;;;;;;4993137;28;20443;-62
2021/07/05 03:26:25;;;;;;;8.30;7.80;;;17.20;99.90;;;;;;4993436;28;20558;-62
2021/07/05 03:28:52;;;;;;;7.73;7.20;;;17.20;99.90;;;;;;4993478;28;20840;-63
2021/07/05 03:31:19;;;;;;;7.43;6.93;;;17.20;99.90;;;;;;4993336;28;20451;-63
2021/07/05 03:33:46;;;;;;;8.57;8.07;;;17.30;99.90;;;;;;4993376;28;20454;-63
2021/07/05 03:36:13;;;;;;;8.23;7.67;;;17.40;99.90;;;;;;4993539;28;20768;-63
2021/07/05 03:38:39;;;;;;;8.07;7.70;;;17.40;99.90;;;;;;4993135;28;20467;-63
2021/07/05 03:41:07;;;;;;;7.83;7.43;;;17.50;99.90;;;;;;4998440;28;20454;-63
2021/07/05 03:43:34;;;;;;;8.20;7.70;;;17.40;99.90;;;;;;5004034;28;20446;-63
2021/07/05 03:46:01;;;;;;;8.60;7.93;;;17.50;99.90;;;;;;5012838;28;20449;-62
2021/07/05 03:48:27;;;;;;;9.20;8.60;;;17.50;99.90;;;;;;5012661;28;20478;-62
2021/07/05 03:50:54;;;;;;;8.80;8.27;;;17.50;99.90;;;;;;5012594;28;20446;-62
2021/07/05 03:53:21;;;;;;;9.40;8.90;;;17.40;99.90;;;;;;5012473;28;20449;-62
2021/07/05 03:55:47;;;;;;;9.10;8.40;;;17.40;99.90;;;;;;5012532;28;20445;-62
2021/07/05 03:58:16;;;;;;;9.70;9.10;;;17.40;99.90;;;;;;5005203;28;20554;-63
2021/07/05 04:00:43;;;;;;;9.77;8.93;;;17.40;99.90;;;;;;4992877;28;20450;-63
2021/07/05 04:03:10;;;;;;;11.97;10.40;;;17.40;99.90;;;;;;4992639;28;20561;-62
2021/07/05 04:05:37;;;;;;;10.03;9.33;;;17.40;99.90;;;;;;4992609;28;20442;-61
2021/07/05 04:08:04;;;;;;;10.73;9.73;;;17.30;99.90;;;;;;5000163;28;20477;-65
2021/07/05 04:10:32;;;;;;;11.43;10.57;;;17.10;99.90;;;;;;5011803;28;20457;-65
2021/07/05 04:12:59;;;;;;;11.17;10.67;;;16.80;99.90;;;;;;5010953;28;20922;-65
2021/07/05 04:15:27;;;;;;;9.30;8.90;;;16.70;99.90;;;;;;5011877;28;20468;-65
2021/07/05 04:17:54;;;;;;;10.87;9.80;;;16.50;99.90;;;;;;5012031;28;20461;-65
2021/07/05 04:20:22;;;;;;;6.63;6.20;;;16.40;99.90;;;;;;5000391;28;20447;-65
2021/07/05 04:22:50;;;;;;;6.83;6.57;;;16.30;99.90;;;;;;4992183;28;20845;-65
2021/07/05 04:25:18;;;;;;;7.37;6.87;;;16.10;99.90;;;;;;4992420;28;20459;-65
2021/07/05 04:27:46;;;;;;;7.33;6.90;;;16.00;99.90;;;;;;4992280;28;20450;-65
2021/07/05 04:30:14;;;;;;;7.63;7.33;;;16.00;99.90;;;;;;4992142;28;20486;-66
2021/07/05 04:32:43;;;;;;;8.60;8.10;;;15.90;99.90;;;;;;4992059;28;20439;-66
2021/07/05 04:35:13;;;;;;;9.13;8.30;;;15.90;99.90;;;;;;4991214;28;20447;-66
2021/07/05 04:37:41;;;;;;;7.70;7.30;;;15.90;99.90;;;;;;4992133;28;20466;-66
2021/07/05 04:40:10;;;;;;;8.00;7.50;;;15.90;99.90;;;;;;4992087;28;20482;-66
2021/07/05 04:42:37;;;;;;;8.03;7.23;;;15.80;99.90;;;;;;4991982;28;20453;-66
2021/07/05 04:45:06;;;;;;;7.00;6.60;;;15.90;99.90;;;;;;4992203;28;20796;-66
2021/07/05 04:47:33;;;;;;;8.33;7.60;;;15.80;99.90;;;;;;4992091;28;20447;-66
2021/07/05 04:50:01;;;;;;;9.87;9.27;;;15.80;99.90;;;;;;4992023;28;20485;-65
2021/07/05 04:52:28;;;;;;;8.33;6.40;;;15.60;99.90;;;;;;4992105;28;20455;-66
2021/07/05 04:54:54;;;;;;;6.30;5.80;;;15.40;99.90;;;;;;4991964;28;20455;-66
2021/07/05 04:57:21;;;;;;;6.97;3.90;;;15.30;99.90;;;;;;4992079;28;20447;-66
2021/07/05 04:59:48;;;;;;;6.47;3.67;;;15.20;99.90;;;;;;4992023;28;20467;-66
2021/07/05 05:02:15;;;;;;;5.13;3.83;;;15.10;99.90;;;;;;4991842;28;20749;-66
2021/07/05 05:04:41;;;;;;;4.43;3.00;;;15.00;99.90;;;;;;4992023;28;20447;-65
2021/07/05 05:07:10;;;;;;;7.93;6.43;;;15.00;99.90;;;;;;4992008;28;20453;-66
2021/07/05 05:09:37;;;;;;;8.10;6.53;;;15.00;99.90;;;;;;4991690;28;20490;-67
2021/07/05 05:12:04;;;;;;;7.00;6.50;;;15.00;99.90;;;;;;4991716;28;20862;-66
2021/07/05 05:14:31;;;;;;;8.83;7.83;;;15.10;99.90;;;;;;4991845;28;20452;-67
2021/07/05 05:16:57;;;;;;;9.33;8.73;;;15.10;99.90;;;;;;4991767;28;20485;-67
2021/07/05 05:19:24;;;;;;;10.93;9.83;;;15.10;99.90;;;;;;4991844;28;20467;-67
2021/07/05 05:21:51;;;;;;;10.70;8.40;;;15.20;99.90;;;;;;4991566;28;20940;-67
2021/07/05 05:24:19;;;;;;;8.90;8.20;;;15.20;99.90;;;;;;4991840;28;20442;-67
2021/07/05 05:26:46;;;;;;;9.23;8.43;;;15.20;99.90;;;;;;4991682;28;20443;-67
2021/07/05 05:29:12;;;;;;;9.37;8.67;;;15.20;99.90;;;;;;4991716;28;20852;-67
2021/07/05 05:31:39;;;;;;;9.50;8.60;;;15.30;99.90;;;;;;4991529;28;20970;-68
2021/07/05 05:34:06;;;;;;;11.27;10.33;;;15.40;99.90;;;;;;4991817;28;20454;-67
2021/07/05 05:36:33;;;;;;;10.27;9.23;;;15.40;99.90;;;;;;4994930;28;20940;-67
2021/07/05 05:39:01;;;;;;;10.33;9.40;;;15.50;99.90;;;;;;4995351;28;20465;-67
2021/07/05 05:41:29;;;;;;;35.43;11.63;;;15.50;99.90;;;;;;4995051;28;20858;-67
2021/07/05 05:43:59;;;;;;;10.40;9.40;;;15.60;99.90;;;;;;4995217;28;20454;-67
2021/07/05 05:46:28;;;;;;;8.77;8.00;;;15.70;99.90;;;;;;4995109;28;20811;-67
2021/07/05 05:48:54;;;;;;;10.83;9.73;;;15.80;99.90;;;;;;4994945;28;20518;-67
2021/07/05 05:51:22;;;;;;;10.07;9.50;;;15.80;99.90;;;;;;4994883;28;20473;-67
2021/07/05 05:53:49;;;;;;;11.27;10.27;;;15.90;99.90;;;;;;4994968;28;20462;-67
2021/07/05 05:56:16;;;;;;;12.43;11.37;;;16.00;99.90;;;;;;4994954;28;20443;-67
2021/07/05 05:58:44;;;;;;;12.10;11.10;;;16.00;99.90;;;;;;4995208;28;20474;-68
2021/07/05 06:01:10;;;;;;;12.10;10.47;;;16.20;99.90;;;;;;4994685;28;20895;-68
2021/07/05 06:03:37;;;;;;;11.03;10.33;;;16.30;99.90;;;;;;4994788;28;20447;-68
2021/07/05 06:06:04;;;;;;;12.43;11.57;;;16.50;99.90;;;;;;4994813;28;20447;-67
2021/07/05 06:08:30;;;;;;;11.43;10.53;;;16.60;99.90;;;;;;4994556;28;20459;-68
2021/07/05 06:10:57;;;;;;;12.07;11.10;;;16.70;99.90;;;;;;4994707;28;20465;-68
2021/07/05 06:13:24;;;;;;;12.80;11.80;;;16.80;99.90;;;;;;4994577;28;20446;-67
2021/07/05 06:15:52;;;;;;;11.73;11.03;;;16.80;99.90;;;;;;4994707;28;20446;-67
2021/07/05 06:18:19;;;;;;;13.03;12.33;;;17.00;99.90;;;;;;4994485;28;20459;-68
2021/07/05 06:20:45;;;;;;;13.30;12.50;;;17.10;99.90;;;;;;4994528;28;20446;-68
2021/07/05 06:23:19;;;;;;;12.93;12.13;;;17.30;99.90;;;;;;4994312;28;20805;-68
2021/07/05 06:25:47;;;;;;;13.67;12.90;;;17.40;99.90;;;;;;4994285;28;20458;-68
2021/07/05 06:28:14;;;;;;;13.90;13.20;;;17.60;99.90;;;;;;4994248;28;20466;-67
2021/07/05 06:30:41;;;;;;;13.87;12.97;;;17.70;99.90;;;;;;4994185;28;21226;-67
2021/07/05 06:33:09;;;;;;;14.77;13.60;;;17.80;99.90;;;;;;4994079;28;20446;-67
2021/07/05 06:35:35;;;;;;;13.97;13.07;;;17.80;99.90;;;;;;4994162;28;20447;-67
2021/07/05 06:38:02;;;;;;;14.83;13.90;;;18.00;99.90;;;;;;4994091;28;20466;-68
2021/07/05 06:40:29;;;;;;;15.53;14.50;;;18.00;99.90;;;;;;4994167;28;20458;-67
2021/07/05 06:42:56;;;;;;;14.33;13.57;;;18.10;99.90;;;;;;4993785;28;20952;-67
2021/07/05 06:45:22;;;;;;;14.60;13.90;;;18.00;99.90;;;;;;4993804;28;20453;-68
2021/07/05 06:47:49;;;;;;;14.43;13.70;;;18.10;99.90;;;;;;4993889;28;20471;-68
2021/07/05 06:50:17;;;;;;;16.30;15.30;;;18.10;99.90;;;;;;4993774;28;20486;-66
2021/07/05 06:52:44;;;;;;;15.23;14.40;;;18.10;99.90;;;;;;4993657;28;20458;-67
2021/07/05 06:55:12;;;;;;;14.50;13.90;;;18.10;99.90;;;;;;4993853;28;20446;-68
2021/07/05 06:57:39;;;;;;;15.00;14.30;;;18.30;99.90;;;;;;4993636;28;20447;-68
2021/07/05 07:00:08;;;;;;;15.23;14.63;;;18.50;99.90;;;;;;4993901;28;20879;-68
2021/07/05 07:02:36;;;;;;;15.67;15.00;;;18.80;99.90;;;;;;4993547;28;20446;-68
2021/07/05 07:05:04;;;;;;;16.30;15.50;;;19.10;99.90;;;;;;4993746;28;20446;-68
2021/07/05 07:07:32;;;;;;;16.40;15.60;;;19.30;99.90;;;;;;4993575;28;20517;-67
2021/07/05 07:09:59;;;;;;;16.23;15.63;;;19.50;99.90;;;;;;4993574;28;20554;-66
2021/07/05 07:12:25;;;;;;;18.10;17.20;;;19.50;99.90;;;;;;4993287;28;20450;-68
2021/07/05 07:14:52;;;;;;;17.20;16.40;;;19.60;99.90;;;;;;4993481;28;20450;-68
2021/07/05 07:17:24;;;;;;;17.40;16.60;;;19.80;99.90;;;;;;4993642;28;20458;-68
2021/07/05 07:19:50;;;;;;;17.90;16.90;;;19.90;99.90;;;;;;4993332;28;20471;-68
2021/07/05 07:22:19;;;;;;;18.00;17.30;;;19.90;99.90;;;;;;4993237;28;20832;-68
2021/07/05 07:24:47;;;;;;;17.90;16.90;;;20.00;99.90;;;;;;4993225;28;20959;-67
2021/07/05 07:27:14;;;;;;;19.77;18.77;;;20.00;99.90;;;;;;4993135;28;20447;-67
2021/07/05 07:29:40;;;;;;;19.53;18.60;;;20.00;99.90;;;;;;4993130;28;20486;-68
2021/07/05 07:32:08;;;;;;;18.30;17.50;;;20.10;99.90;;;;;;4992942;28;20450;-68
2021/07/05 07:34:34;;;;;;;21.00;19.80;;;20.00;99.90;;;;;;4993101;28;20449;-68
2021/07/05 07:37:03;;;;;;;18.90;18.03;;;20.00;99.90;;;;;;4993108;28;20488;-68
2021/07/05 07:39:33;;;;;;;20.20;19.20;;;19.90;99.90;;;;;;4993004;28;20471;-68
2021/07/05 07:42:02;;;;;;;19.00;17.97;;;19.80;99.90;;;;;;4992853;28;20823;-68
2021/07/05 07:44:29;;;;;;;18.13;17.33;;;19.80;99.90;;;;;;4992855;28;20450;-68
2021/07/05 07:46:55;;;;;;;18.63;17.67;;;19.90;99.90;;;;;;4992979;28;20450;-69
2021/07/05 07:49:22;;;;;;;18.50;17.80;;;20.10;99.90;;;;;;4992627;28;20463;-68
2021/07/05 07:51:49;;;;;;;18.67;17.97;;;20.40;99.90;;;;;;4992579;28;20443;-67
2021/07/05 07:54:16;;;;;;;20.30;19.30;;;20.30;99.90;;;;;;4992863;28;20454;-68
2021/07/05 07:56:43;;;;;;;18.83;17.93;;;20.40;99.90;;;;;;4992720;28;20443;-67
2021/07/05 07:59:11;;;;;;;19.90;19.10;;;20.10;99.90;;;;;;4991952;28;20478;-67
2021/07/05 08:01:37;;;;;;;19.33;18.33;;;19.90;99.90;;;;;;4992472;28;20455;-67
2021/07/05 08:04:04;;;;;;;19.33;18.33;;;20.00;99.90;;;;;;4992668;28;20967;-68
2021/07/05 08:06:31;;;;;;;19.20;17.90;;;20.20;99.90;;;;;;4992531;28;20447;-67
2021/07/05 08:08:59;;;;;;;20.37;19.27;;;20.30;99.90;;;;;;4992516;28;20471;-68
2021/07/05 08:11:26;;;;;;;21.23;19.90;;;20.10;99.90;;;;;;4992342;28;21023;-67
2021/07/05 08:13:53;;;;;;;19.60;18.67;;;20.20;99.90;;;;;;4992356;28;20446;-69
2021/07/05 08:16:21;;;;;;;20.30;19.27;;;20.60;99.90;;;;;;4992428;28;20459;-68
2021/07/05 08:18:47;;;;;;;20.20;19.00;;;21.00;99.90;;;;;;4992156;28;20471;-68
2021/07/05 08:21:15;;;;;;;19.70;18.80;;;21.20;99.90;;;;;;4992142;28;20443;-68
2021/07/05 08:23:42;;;;;;;19.63;18.70;;;21.60;99.90;;;;;;4992204;28;20541;-68
2021/07/05 08:26:09;;;;;;;19.37;18.33;;;22.00;99.90;;;;;;4992207;28;20446;-68
2021/07/05 08:28:35;;;;;;;19.93;18.70;;;22.10;99.90;;;;;;4992189;28;20462;-68
2021/07/05 08:31:04;;;;;;;19.50;18.70;;;22.20;99.90;;;;;;4992136;28;20483;-68
2021/07/05 08:33:32;;;;;;;19.60;18.67;;;22.60;99.90;;;;;;4992131;28;20447;-68
2021/07/05 08:35:59;;;;;;;21.07;20.07;;;23.00;99.90;;;;;;4992038;28;20458;-68
2021/07/05 08:38:26;;;;;;;20.53;19.63;;;23.40;99.90;;;;;;4991990;28;20478;-68
2021/07/05 08:40:53;;;;;;;20.47;19.67;;;23.40;99.90;;;;;;4991974;28;20505;-67
2021/07/05 08:43:25;;;;;;;20.17;19.17;;;23.00;99.90;;;;;;4991935;28;20450;-68
2021/07/05 08:45:55;;;;;;;21.57;20.63;;;22.70;99.90;;;;;;4992089;28;20451;-68
2021/07/05 08:48:22;;;;;;;20.57;19.77;;;22.30;99.90;;;;;;4991902;28;21006;-67
2021/07/05 08:50:50;;;;;;;20.53;19.43;;;22.10;99.90;;;;;;4991930;28;20486;-68
2021/07/05 08:53:17;;;;;;;21.07;19.80;;;22.10;99.90;;;;;;4991818;28;20921;-67
2021/07/05 08:55:44;;;;;;;20.20;19.00;;;22.00;99.90;;;;;;4991941;28;20442;-67
2021/07/05 08:58:11;;;;;;;20.13;19.27;;;21.80;99.90;;;;;;4991733;28;20483;-68
2021/07/05 09:00:38;;;;;;;20.53;19.53;;;21.40;99.90;;;;;;4991933;28;20961;-67
2021/07/05 09:03:04;;;;;;;20.27;19.17;;;20.80;99.90;;;;;;4991736;28;20439;-68
2021/07/05 09:05:31;;;;;;;20.90;19.60;;;20.70;99.90;;;;;;4991932;28;20453;-67
2021/07/05 09:08:03;;;;;;;19.20;18.40;;;20.80;99.90;;;;;;4991785;28;20467;-68
2021/07/05 09:10:43;;;;;;;19.43;18.57;;;20.90;99.90;;;;;;4995389;28;20482;-67
2021/07/05 09:13:12;;;;;;;21.70;20.73;;;21.10;99.90;;;;;;4995567;28;20446;-68
2021/07/05 09:15:44;;;;;;;19.53;18.63;;;21.50;99.90;;;;;;4995710;28;20446;-67
2021/07/05 09:18:29;;;;;;;20.60;19.60;;;22.00;99.90;;;;;;4995803;28;20466;-67
2021/07/05 09:20:59;;;;;;;21.73;20.43;;;22.50;99.90;;;;;;4995685;28;20857;-68
2021/07/05 09:23:27;;;;;;;20.10;19.30;;;23.10;99.90;;;;;;4995480;28;20553;-68
2021/07/05 09:25:54;;;;;;;20.40;19.40;;;23.70;99.90;;;;;;4995437;28;20443;-68
2021/07/05 09:28:23;;;;;;;20.70;19.70;;;23.60;99.90;;;;;;4995485;28;20479;-68
2021/07/05 09:30:52;;;;;;;20.00;19.10;;;23.20;99.90;;;;;;4995271;28;20514;-68
2021/07/05 09:33:23;;;;;;;20.53;19.63;;;23.30;99.00;;;;;;4995098;28;20446;-68
2021/07/05 09:35:52;;;;;;;21.50;20.40;;;23.30;98.60;;;;;;4995381;28;20447;-68
2021/07/05 09:38:32;;;;;;;20.83;19.50;;;23.20;98.80;;;;;;4995199;28;20467;-68
2021/07/05 09:41:00;;;;;;;20.77;19.67;;;22.70;99.60;;;;;;4995163;28;20513;-68
2021/07/05 09:43:29;;;;;;;21.03;19.73;;;22.60;99.90;;;;;;4995053;28;20450;-68
2021/07/05 09:45:56;;;;;;;21.00;20.00;;;22.50;99.70;;;;;;4995573;28;20451;-68
2021/07/05 09:48:24;;;;;;;20.93;20.03;;;22.40;99.90;;;;;;4995092;28;20467;-67
2021/07/05 09:50:59;;;;;;;19.83;19.07;;;22.60;99.90;;;;;;4995035;28;20482;-68
2021/07/05 09:53:34;;;;;;;20.60;19.57;;;23.10;99.60;;;;;;4994982;28;20450;-68
2021/07/05 09:56:17;;;;;;;20.70;19.80;;;23.60;99.10;;;;;;4994992;28;20450;-67
2021/07/05 09:58:44;;;;;;;20.47;19.47;;;23.90;99.00;;;;;;4994770;28;20498;-67
2021/07/05 10:01:11;;;;;;;21.03;20.00;;;24.10;96.60;;;;;;4994606;28;20446;-67
2021/07/05 10:03:40;;;;;;;20.37;19.37;;;24.30;96.50;;;;;;4994841;28;20447;-67
2021/07/05 10:06:17;;;;;;;21.33;20.33;;;24.10;95.90;;;;;;4994755;28;20451;-67
2021/07/05 10:08:47;;;;;;;20.87;19.87;;;23.70;97.20;;;;;;4994751;28;20473;-67
2021/07/05 10:11:14;;;;;;;21.00;20.00;;;23.90;96.70;;;;;;4994335;28;20478;-67
2021/07/05 10:13:42;;;;;;;19.97;19.17;;;24.40;95.90;;;;;;4994592;28;20446;-67
2021/07/05 10:16:12;;;;;;;21.43;20.17;;;24.70;93.50;;;;;;4994560;28;20809;-67
2021/07/05 10:18:40;;;;;;;21.47;20.40;;;25.10;92.60;;;;;;4994492;28;20471;-67
2021/07/05 10:21:07;;;;;;;20.80;19.80;;;24.70;92.20;;;;;;4993747;28;20529;-67
2021/07/05 10:23:35;;;;;;;20.70;19.70;;;24.60;92.70;;;;;;4994279;28;20447;-67
2021/07/05 10:26:05;;;;;;;21.43;20.17;;;24.60;92.20;;;;;;4994365;28;20450;-67
2021/07/05 10:28:34;;;;;;;20.43;19.50;;;24.50;92.30;;;;;;4994129;28;20471;-67
2021/07/05 10:31:02;;;;;;;20.10;19.20;;;24.90;92.00;;;;;;4994209;28;20510;-67
2021/07/05 10:33:29;;;;;;;22.13;21.10;;;25.50;87.30;;;;;;4994204;28;20442;-67
2021/07/05 10:35:57;;;;;;;20.83;19.93;;;25.70;81.20;;;;;;4994327;28;20458;-67
2021/07/05 10:38:30;;;;;;;20.47;19.57;;;25.70;82.80;;;;;;4994043;28;20471;-67
2021/07/05 10:41:08;;;;;;;21.97;21.07;;;26.30;78.80;;;;;;4994112;28;20501;-67
2021/07/05 10:43:49;;;;;;;21.93;20.77;;;26.30;73.50;;;;;;4994165;28;20439;-68
2021/07/05 10:46:41;;;;;;;22.07;20.80;;;26.60;74.10;;;;;;4994011;28;20509;-68
2021/07/05 10:49:09;;;;;;;21.50;20.70;;;26.70;71.20;;;;;;4994070;28;20489;-68
2021/07/05 10:51:44;;;;;;;21.03;20.20;;;26.50;71.20;;;;;;4993652;28;20489;-67
2021/07/05 10:54:11;;;;;;;21.87;20.87;;;26.60;71.50;;;;;;4993857;28;20856;-67
2021/07/05 10:56:44;;;;;;;21.97;20.97;;;26.20;70.30;;;;;;4993844;28;20447;-67
2021/07/05 10:59:47;;;;;;;19.93;19.03;;;26.30;70.20;;;;;;4993570;28;20577;-68
2021/07/05 11:02:36;;;;;;;20.80;19.57;;;26.00;71.40;;;;;;4993451;28;20453;-67
2021/07/05 11:05:04;;;;;;;21.87;20.53;;;25.70;72.20;;;;;;4993697;28;20509;-67
2021/07/05 11:07:45;;;;;;;22.97;21.83;;;25.90;72.00;;;;;;4993436;28;20933;-67
2021/07/05 11:10:18;;;;;;;20.83;19.93;;;26.00;73.40;;;;;;4993530;28;20457;-67
2021/07/05 11:12:59;;;;;;;21.20;20.17;;;25.80;74.90;;;;;;4993455;28;20474;-67
2021/07/05 11:15:52;;;;;;;20.20;19.30;;;25.40;75.70;;;;;;4993480;28;20465;-67
2021/07/05 11:19:05;;;;;;;22.63;21.50;;;25.40;73.70;;;;;;4993388;28;20458;-67
2021/07/05 11:21:54;;;;;;;20.03;19.23;;;25.20;74.10;;;;;;4993216;28;20897;-67
2021/07/05 11:24:20;;;;;;;20.20;19.40;;;25.30;76.00;;;;;;4993345;28;20443;-67
2021/07/05 11:26:49;;;;;;;20.20;19.47;;;25.70;74.00;;;;;;4993273;28;20443;-67
2021/07/05 11:29:25;;;;;;;20.30;19.40;;;26.00;73.00;;;;;;4993072;28;20462;-67
2021/07/05 11:31:54;;;;;;;20.50;19.30;;;26.30;69.40;;;;;;4992392;28;20995;-67
2021/07/05 11:34:27;;;;;;;20.37;19.40;;;25.70;71.90;;;;;;4992730;28;20449;-67
2021/07/05 11:37:36;;;;;;;19.67;18.97;;;25.50;69.60;;;;;;4993057;28;20920;-67
2021/07/05 11:40:03;;;;;;;21.13;20.23;;;25.20;71.70;;;;;;4957862;28;20879;-67
2021/07/05 11:42:59;;;;;;;20.30;19.30;;;25.60;70.90;;;;;;4992684;28;20438;-67
2021/07/05 11:45:43;;;;;;;21.13;20.13;;;26.00;71.40;;;;;;4992858;28;20501;-68
2021/07/05 11:48:11;;;;;;;20.50;19.70;;;26.70;68.10;;;;;;4992729;28;20466;-68
2021/07/05 11:50:41;;;;;;;20.60;19.70;;;27.30;63.20;;;;;;4992723;28;20443;-68
2021/07/05 11:53:13;;;;;;;22.40;21.40;;;27.80;59.50;;;;;;4992586;28;20458;-68
2021/07/05 11:55:40;;;;;;;20.40;19.70;;;28.80;58.50;;;;;;4992790;28;20482;-68
2021/07/05 11:58:09;;;;;;;20.20;19.50;;;28.80;56.90;;;;;;5048789;23;20856;-68
2021/07/05 12:00:38;;;;;;;20.10;19.30;;;28.70;52.90;;;;;;4981275;28;20519;-67
2021/07/05 12:03:09;;;;;;;19.80;19.00;;;28.40;52.50;;;;;;4973099;28;20455;-68
2021/07/05 12:05:37;;;;;;;19.93;19.23;;;27.80;53.90;;;;;;4973355;28;20447;-68
2021/07/05 12:08:06;;;;;;;20.23;19.43;;;27.30;53.40;;;;;;4973116;28;20498;-67
2021/07/05 12:10:36;;;;;;;20.30;19.50;;;27.00;54.30;;;;;;4973100;28;20462;-68
2021/07/05 12:13:14;;;;;;;20.43;19.63;;;26.90;54.60;;;;;;4973108;28;20452;-68
2021/07/05 12:15:42;;;;;;;20.13;19.43;;;26.50;56.20;;;;;;4972992;28;20563;-67
2021/07/05 12:18:15;;;;;;;20.00;19.07;;;25.90;56.30;;;;;;4972901;28;20859;-67
2021/07/05 12:20:41;;;;;;;19.90;19.10;;;25.10;58.30;;;;;;4973057;28;20506;-67
2021/07/05 12:23:10;;;;;;;19.43;18.77;;;24.70;59.10;;;;;;4972724;28;20825;-68
2021/07/05 12:25:37;;;;;;;20.07;19.17;;;24.60;59.40;;;;;;4972983;28;20448;-68
2021/07/05 12:28:12;;;;;;;19.57;18.73;;;24.50;59.70;;;;;;4972767;28;20448;-67
2021/07/05 12:30:44;;;;;;;19.83;19.03;;;24.20;62.80;;;;;;4972722;28;20924;-67
2021/07/05 12:33:12;;;;;;;20.33;19.53;;;24.10;65.50;;;;;;4972599;28;20451;-67
2021/07/05 12:35:39;;;;;;;20.60;19.80;;;23.80;65.90;;;;;;4972861;28;20444;-68
2021/07/05 12:38:11;;;;;;;20.07;19.37;;;23.50;67.20;;;;;;4972742;28;20452;-67
2021/07/05 12:40:38;;;;;;;19.53;18.83;;;22.90;67.30;;;;;;4972871;28;20491;-67
2021/07/05 12:43:07;;;;;;;20.47;19.70;;;22.70;69.80;;;;;;4972405;28;20444;-67
2021/07/05 12:45:36;;;;;;;19.10;18.40;;;22.30;71.20;;;;;;4972458;28;20447;-67